M I D A S
Marine Information and Data Acquisition System
Tripno 1603 of the Zeeleeuw from 2008-09-08 06:17:00 to 2008-09-08 12:45:18
Back to CruiseResearch ActivitiesStationsMapUnderway DataData graphs

EquipmentUnitsComments
TimeDGPSUTC
LatitudeDGPSDM.mWGS84
LongitudeDGPSDM.mWGS84
SpeedMeteo Stationm/sRelative wind speed
DirectionMeteo StationdegRelative wind direction
TemperatureMeteo Stationdeg CelciusAir temperature
PressureMeteo StationPaAtmospheric pressure
HumidityMeteo Station%Relative humidity
Missing or incorrect values are displayed as -999
Metereological data collected by the RV Zeeleeuw from 2008-09-08 06:17:33 to 2008-09-08 12:58:44
Time Latitude Longitude Speed Direction Temperature Pressure Humidity
2008-09-08 06:18 51°13.622 2°56.048 -999 -999 -999 -999 -999
2008-09-08 06:19 51°13.631 2°56.016 -999 -999 -999 -999 -999
2008-09-08 06:20 51°13.653 2°55.928 -999 -999 -999 -999 -999
2008-09-08 06:21 51°13.698 2°55.819 -999 -999 -999 -999 -999
2008-09-08 06:22 51°13.76 2°55.719 -999 -999 -999 -999 -999
2008-09-08 06:23 51°13.837 2°55.645 -999 -999 -999 -999 -999
2008-09-08 06:24 51°13.899 2°55.632 -999 -999 -999 -999 -999
2008-09-08 06:25 51°13.935 2°55.65 -999 -999 -999 -999 -999
2008-09-08 06:26 51°13.957 2°55.672 3.8 28 14.2 101290 99
2008-09-08 06:27 51°13.968 2°55.694 3.9 255 14.3 101290 100
2008-09-08 06:28 51°13.974 2°55.7 4.5 260 14.3 101290 100
2008-09-08 06:29 51°13.98 2°55.697 2.7 33 14.3 101290 100
2008-09-08 06:30 51°14.014 2°55.634 5.1 27 14.3 101290 -999
2008-09-08 06:31 51°14.105 2°55.463 3.9 29 14.3 101290 -999
2008-09-08 06:32 51°14.227 2°55.306 5.8 316 14.3 101290 -999
2008-09-08 06:33 51°14.336 2°55.123 7.1 248 14.4 101290 -999
2008-09-08 06:34 51°14.419 2°54.92 7.4 25 14.4 101290 -999
2008-09-08 06:35 51°14.489 2°54.777 6.9 25 14.4 101290 -999
2008-09-08 06:36 51°14.552 2°54.655 6.4 19 14.5 101300 -999
2008-09-08 06:37 51°14.605 2°54.528 9 20 14.6 101280 -999
2008-09-08 06:38 51°14.657 2°54.399 8.3 21 14.6 101290 -999
2008-09-08 06:39 51°14.683 2°54.265 8.5 29 14.7 101280 -999
2008-09-08 06:40 51°14.696 2°54.125 8.8 24 14.7 101280 -999
2008-09-08 06:41 51°14.71 2°53.983 10.8 25 14.7 101270 -999
2008-09-08 06:42 51°14.721 2°53.841 10.1 22 14.7 101270 -999
2008-09-08 06:43 51°14.727 2°53.697 9.3 21 14.7 101290 99
2008-09-08 06:44 51°14.732 2°53.551 8 20 14.7 101280 98
2008-09-08 06:45 51°14.735 2°53.405 7.6 28 14.8 101280 98
2008-09-08 06:46 51°14.74 2°53.259 8.6 28 14.8 101290 98
2008-09-08 06:47 51°14.746 2°53.11 7.4 28 14.8 101280 98
2008-09-08 06:48 51°14.749 2°52.966 9.8 21 14.9 101270 98
2008-09-08 06:49 51°14.734 2°52.83 10.2 316 14.9 101280 98
2008-09-08 06:50 51°14.712 2°52.695 8.8 29 14.9 101260 98
2008-09-08 06:51 51°14.693 2°52.559 10.4 20 14.9 101270 97
2008-09-08 06:52 51°14.673 2°52.424 11.9 26 14.9 101260 97
2008-09-08 06:53 51°14.649 2°52.293 12.1 25 15 101270 97
2008-09-08 06:54 51°14.625 2°52.161 10.1 25 15 101270 96
2008-09-08 06:55 51°14.599 2°52.032 11.8 317 15 101270 96
2008-09-08 06:56 51°14.575 2°51.899 13.3 26 15 101260 97
2008-09-08 06:57 51°14.552 2°51.766 11.7 25 15 101260 96
2008-09-08 06:58 51°14.53 2°51.633 10.9 316 15.1 101260 96
2008-09-08 06:59 51°14.502 2°51.503 9.9 318 15 101270 96
2008-09-08 07:00 51°14.474 2°51.372 12.5 316 15.1 101280 96
2008-09-08 07:01 51°14.445 2°51.244 12.1 316 15.1 101270 95
2008-09-08 07:02 51°14.416 2°51.116 9.7 316 15.1 101270 95
2008-09-08 07:03 51°14.387 2°50.983 11 319 15 101280 96
2008-09-08 07:04 51°14.354 2°50.857 12 321 15.1 101280 96
2008-09-08 07:05 51°14.321 2°50.732 10.5 317 15 101280 96
2008-09-08 07:06 51°14.288 2°50.606 10.8 317 15 101280 96
2008-09-08 07:07 51°14.256 2°50.477 11 320 15 101290 96
2008-09-08 07:08 51°14.221 2°50.349 10.1 320 15 101300 96
2008-09-08 07:09 51°14.188 2°50.223 9.8 318 15 101290 96
2008-09-08 07:10 51°14.154 2°50.097 11.6 319 15.1 101300 96
2008-09-08 07:11 51°14.12 2°49.971 10.6 319 15 101290 96
2008-09-08 07:12 51°14.086 2°49.843 11.4 317 15 101300 95
2008-09-08 07:13 51°14.053 2°49.716 11.3 316 15 101300 96
2008-09-08 07:14 51°14.02 2°49.59 9.3 319 15 101290 95
2008-09-08 07:15 51°13.987 2°49.462 10.4 26 14.9 101300 95
2008-09-08 07:16 51°13.953 2°49.337 11.9 26 14.9 101290 95
2008-09-08 07:17 51°13.913 2°49.213 10.7 317 14.9 101300 95
2008-09-08 07:18 51°13.873 2°49.091 10.2 317 14.8 101310 95
2008-09-08 07:19 51°13.834 2°48.969 11.9 317 14.8 101300 95
2008-09-08 07:20 51°13.794 2°48.845 11.8 324 14.8 101310 95
2008-09-08 07:21 51°13.754 2°48.723 8.8 318 14.8 101310 95
2008-09-08 07:22 51°13.714 2°48.599 11.2 318 14.8 101310 95
2008-09-08 07:23 51°13.674 2°48.475 9.8 319 14.8 101310 95
2008-09-08 07:24 51°13.634 2°48.351 11.5 321 14.8 101310 94
2008-09-08 07:25 51°13.593 2°48.228 12 320 14.8 101310 95
2008-09-08 07:26 51°13.554 2°48.104 10.7 318 14.8 101310 94
2008-09-08 07:27 51°13.513 2°47.983 9.6 321 14.8 101320 94
2008-09-08 07:28 51°13.472 2°47.862 11.2 320 14.8 101310 94
2008-09-08 07:29 51°13.447 2°47.73 10.5 21 14.8 101310 95
2008-09-08 07:30 51°13.472 2°47.593 9 247 14.9 101310 95
2008-09-08 07:31 51°13.536 2°47.481 9.8 251 14.9 101310 94
2008-09-08 07:32 51°13.608 2°47.37 8.7 21 14.8 101310 94
2008-09-08 07:33 51°13.677 2°47.256 7.3 248 14.9 101320 94
2008-09-08 07:34 51°13.746 2°47.139 7.8 253 14.9 101320 94
2008-09-08 07:35 51°13.82 2°47.031 8.8 253 14.9 101320 94
2008-09-08 07:36 51°13.912 2°46.964 5.4 264 15 101320 94
2008-09-08 07:37 51°14.008 2°46.911 5.7 266 15 101330 94
2008-09-08 07:38 51°14.102 2°46.855 7 259 15 101330 94
2008-09-08 07:39 51°14.197 2°46.8 6 263 15 101330 93
2008-09-08 07:40 51°14.291 2°46.742 5.9 263 15 101320 93
2008-09-08 07:41 51°14.384 2°46.683 6 262 15 101320 93
2008-09-08 07:42 51°14.473 2°46.627 6.4 261 15 101320 92
2008-09-08 07:43 51°14.561 2°46.575 6.4 261 15 101330 92
2008-09-08 07:44 51°14.647 2°46.523 6.5 260 15.1 101320 93
2008-09-08 07:45 51°14.732 2°46.47 5.2 263 15.1 101330 93
2008-09-08 07:46 51°14.818 2°46.417 8.2 257 15.1 101330 92
2008-09-08 07:47 51°14.903 2°46.362 6.5 259 15.1 101330 92
2008-09-08 07:48 51°14.987 2°46.309 9.7 259 15.1 101330 92
2008-09-08 07:49 51°15.073 2°46.254 5.5 261 15.1 101330 92
2008-09-08 07:50 51°15.159 2°46.203 8.2 260 15.2 101330 92
2008-09-08 07:51 51°15.245 2°46.151 7.4 261 15.2 101330 92
2008-09-08 07:52 51°15.325 2°46.089 8.1 253 15.3 101330 92
2008-09-08 07:53 51°15.392 2°46.005 10.4 252 15.3 101320 92
2008-09-08 07:54 51°15.456 2°45.918 7.4 20 15.3 101330 92
2008-09-08 07:55 51°15.518 2°45.825 10.5 23 15.3 101330 92
2008-09-08 07:56 51°15.574 2°45.728 10.5 246 15.2 101320 91
2008-09-08 07:57 51°15.625 2°45.627 9.7 248 15.2 101330 91
2008-09-08 07:58 51°15.674 2°45.52 10.1 26 15.3 101330 91
2008-09-08 07:59 51°15.718 2°45.408 9.6 29 15.3 101320 92
2008-09-08 08:00 51°15.744 2°45.29 9 24 15.3 101330 91
2008-09-08 08:01 51°15.765 2°45.169 12.3 24 15.3 101320 91
2008-09-08 08:02 51°15.778 2°45.049 12.7 25 15.3 101320 91
2008-09-08 08:03 51°15.777 2°44.932 11 25 15.3 101320 90
2008-09-08 08:04 51°15.776 2°44.811 9.5 317 15.4 101330 91
2008-09-08 08:05 51°15.776 2°44.689 9.9 20 15.4 101320 90
2008-09-08 08:06 51°15.777 2°44.568 9.4 315 15.3 101330 90
2008-09-08 08:07 51°15.778 2°44.447 10.1 27 15.4 101330 91
2008-09-08 08:08 51°15.779 2°44.324 12.4 22 15.3 101310 89
2008-09-08 08:09 51°15.78 2°44.203 10.9 25 15.4 101320 89
2008-09-08 08:10 51°15.781 2°44.082 11.2 27 15.3 101320 89
2008-09-08 08:11 51°15.777 2°43.961 12.5 318 15.4 101330 89
2008-09-08 08:12 51°15.769 2°43.847 10.7 316 15.4 101330 89
2008-09-08 08:13 51°15.754 2°43.734 10.2 319 15.4 101330 89
2008-09-08 08:14 51°15.736 2°43.609 10.9 29 15.5 101330 90
2008-09-08 08:15 51°15.719 2°43.478 12 28 15.5 101330 89
2008-09-08 08:16 51°15.699 2°43.346 10.3 24 15.5 101330 89
2008-09-08 08:17 51°15.679 2°43.214 11.1 25 15.5 101330 89
2008-09-08 08:18 51°15.66 2°43.083 10.9 317 15.5 101330 89
2008-09-08 08:19 51°15.641 2°42.947 13.3 26 15.5 101330 90
2008-09-08 08:20 51°15.624 2°42.809 12.9 27 15.5 101330 89
2008-09-08 08:21 51°15.606 2°42.672 12.6 315 15.4 101330 89
2008-09-08 08:22 51°15.586 2°42.533 11.1 316 15.5 101330 90
2008-09-08 08:23 51°15.566 2°42.397 13.7 316 15.5 101330 89
2008-09-08 08:24 51°15.546 2°42.262 13.2 25 15.5 101350 89
2008-09-08 08:25 51°15.526 2°42.126 9.5 316 15.5 101340 89
2008-09-08 08:26 51°15.502 2°41.993 13.3 320 15.5 101350 89
2008-09-08 08:27 51°15.48 2°41.859 10.6 318 15.5 101350 88
2008-09-08 08:28 51°15.457 2°41.725 12.7 319 15.4 101340 88
2008-09-08 08:29 51°15.435 2°41.59 12.7 28 15.4 101350 88
2008-09-08 08:30 51°15.408 2°41.457 10 320 15.4 101350 88
2008-09-08 08:31 51°15.372 2°41.33 10.7 319 15.5 101350 88
2008-09-08 08:32 51°15.328 2°41.208 13.1 320 15.5 101350 88
2008-09-08 08:33 51°15.282 2°41.089 12.7 323 15.4 101360 88
2008-09-08 08:34 51°15.235 2°40.973 11.2 319 15.4 101360 89
2008-09-08 08:35 51°15.188 2°40.857 10.7 321 15.4 101370 89
2008-09-08 08:36 51°15.143 2°40.741 11.4 324 15.5 101370 89
2008-09-08 08:37 51°15.097 2°40.623 11.7 321 15.5 101370 89
2008-09-08 08:38 51°15.051 2°40.503 11.1 321 15.5 101370 89
2008-09-08 08:39 51°15.004 2°40.384 12.3 319 15.5 101360 89
2008-09-08 08:40 51°14.957 2°40.265 10.2 319 15.5 101360 89
2008-09-08 08:41 51°14.91 2°40.144 13.2 321 15.5 101360 89
2008-09-08 08:42 51°14.864 2°40.025 12 320 15.5 101370 89
2008-09-08 08:43 51°14.816 2°39.903 11.3 324 15.5 101370 88
2008-09-08 08:44 51°14.77 2°39.784 10 321 15.5 101370 88
2008-09-08 08:45 51°14.721 2°39.661 12.8 322 15.6 101380 88
2008-09-08 08:46 51°14.676 2°39.535 9.7 321 15.6 101380 87
2008-09-08 08:47 51°14.631 2°39.409 13.1 322 15.6 101360 87
2008-09-08 08:48 51°14.584 2°39.286 12.8 322 15.6 101380 86
2008-09-08 08:49 51°14.537 2°39.163 10.2 323 15.6 101370 86
2008-09-08 08:50 51°14.488 2°39.041 10.6 323 15.6 101390 86
2008-09-08 08:51 51°14.43 2°38.928 12.3 325 15.6 101390 87
2008-09-08 08:52 51°14.371 2°38.814 11.1 318 15.6 101390 86
2008-09-08 08:53 51°14.316 2°38.701 9.6 321 15.6 101380 87
2008-09-08 08:54 51°14.257 2°38.585 11.3 321 15.5 101380 86
2008-09-08 08:55 51°14.199 2°38.472 9.7 324 15.6 101380 86
2008-09-08 08:56 51°14.14 2°38.356 12.2 324 15.6 101380 86
2008-09-08 08:57 51°14.084 2°38.244 10.8 322 15.6 101390 86
2008-09-08 08:58 51°14.027 2°38.128 13.2 325 15.6 101390 86
2008-09-08 08:59 51°13.968 2°38.014 11.4 323 15.6 101390 85
2008-09-08 09:00 51°13.918 2°37.888 10.7 28 15.6 101400 86
2008-09-08 09:01 51°13.872 2°37.758 12.3 318 15.7 101390 87
2008-09-08 09:02 51°13.827 2°37.629 13.4 323 15.7 101390 88
2008-09-08 09:03 51°13.781 2°37.497 13.4 319 15.7 101400 87
2008-09-08 09:04 51°13.739 2°37.366 10.7 319 15.7 101400 86
2008-09-08 09:05 51°13.7 2°37.23 11.2 318 15.6 101390 86
2008-09-08 09:06 51°13.662 2°37.09 11.1 318 15.7 101390 88
2008-09-08 09:07 51°13.625 2°36.954 13.7 318 15.7 101410 87
2008-09-08 09:08 51°13.588 2°36.817 12.8 319 15.7 101400 87
2008-09-08 09:09 51°13.554 2°36.676 12.5 318 15.7 101400 87
2008-09-08 09:10 51°13.522 2°36.533 11.1 321 15.7 101400 86
2008-09-08 09:11 51°13.49 2°36.389 10.1 28 15.7 101400 86
2008-09-08 09:12 51°13.457 2°36.246 12.3 316 15.7 101400 87
2008-09-08 09:13 51°13.423 2°36.101 12 317 15.7 101400 86
2008-09-08 09:14 51°13.389 2°35.955 10.5 318 15.7 101410 86
2008-09-08 09:15 51°13.355 2°35.809 11.5 317 15.8 101400 86
2008-09-08 09:16 51°13.321 2°35.668 12 316 15.8 101400 86
2008-09-08 09:17 51°13.288 2°35.524 11.6 315 15.8 101390 85
2008-09-08 09:18 51°13.255 2°35.383 11.1 319 15.9 101410 86
2008-09-08 09:19 51°13.221 2°35.239 11.8 318 15.8 101400 85
2008-09-08 09:20 51°13.188 2°35.099 10.2 318 15.9 101410 85
2008-09-08 09:21 51°13.155 2°34.956 10.4 320 15.9 101410 85
2008-09-08 09:22 51°13.122 2°34.816 12.2 323 15.9 101420 86
2008-09-08 09:23 51°13.089 2°34.68 9.9 321 16 101410 86
2008-09-08 09:24 51°13.056 2°34.535 10.8 323 16 101420 85
2008-09-08 09:25 51°13.024 2°34.398 10.2 324 16 101410 84
2008-09-08 09:26 51°12.991 2°34.256 13.4 321 16 101420 84
2008-09-08 09:27 51°12.961 2°34.118 13.3 319 16 101410 83
2008-09-08 09:28 51°12.928 2°33.977 11.8 320 16.1 101420 85
2008-09-08 09:29 51°12.897 2°33.837 13.1 322 16 101410 83
2008-09-08 09:30 51°12.865 2°33.696 11.5 322 16 101420 83
2008-09-08 09:31 51°12.833 2°33.556 13.5 321 15.9 101420 83
2008-09-08 09:32 51°12.802 2°33.415 11.3 321 16 101420 84
2008-09-08 09:33 51°12.771 2°33.274 11.7 319 16 101420 84
2008-09-08 09:34 51°12.738 2°33.132 9.2 321 16 101440 84
2008-09-08 09:35 51°12.705 2°32.99 12.1 326 16 101430 85
2008-09-08 09:36 51°12.673 2°32.85 9.7 320 16 101430 84
2008-09-08 09:37 51°12.64 2°32.705 13.5 318 16 101430 83
2008-09-08 09:38 51°12.608 2°32.563 10.7 320 16 101420 83
2008-09-08 09:39 51°12.575 2°32.422 11.3 323 16 101430 83
2008-09-08 09:40 51°12.54 2°32.278 9.2 320 16 101420 82
2008-09-08 09:41 51°12.507 2°32.138 11.2 323 16 101430 82
2008-09-08 09:42 51°12.472 2°31.992 8.7 321 16.1 101440 83
2008-09-08 09:43 51°12.437 2°31.851 9.6 333 16.1 101440 84
2008-09-08 09:44 51°12.401 2°31.708 10 328 16.2 101440 84
2008-09-08 09:45 51°12.363 2°31.561 11.1 330 16.1 101440 82
2008-09-08 09:46 51°12.326 2°31.422 12.8 331 16.1 101440 81
2008-09-08 09:47 51°12.289 2°31.277 11 331 16.1 101450 81
2008-09-08 09:48 51°12.252 2°31.132 12.9 328 16.1 101430 79
2008-09-08 09:49 51°12.215 2°30.986 13.1 326 16.1 101430 80
2008-09-08 09:50 51°12.18 2°30.845 11.3 324 16.1 101440 80
2008-09-08 09:51 51°12.143 2°30.701 12.1 327 16.1 101440 79
2008-09-08 09:52 51°12.106 2°30.556 10 328 16.1 101440 80
2008-09-08 09:53 51°12.068 2°30.41 11.2 334 16.1 101450 81
2008-09-08 09:54 51°12.029 2°30.264 12.6 331 16.1 101430 80
2008-09-08 09:55 51°11.991 2°30.118 11.6 332 16.1 101430 80
2008-09-08 09:56 51°11.951 2°29.97 13.4 333 16 101430 78
2008-09-08 09:57 51°11.913 2°29.828 10.9 330 16.1 101440 79
2008-09-08 09:58 51°11.874 2°29.681 12.4 330 16.1 101440 79
2008-09-08 09:59 51°11.835 2°29.533 12.1 333 16.2 101440 80
2008-09-08 10:00 51°11.794 2°29.382 11.1 328 16.2 101440 82
2008-09-08 10:01 51°11.755 2°29.234 11.1 328 16.2 101440 82
2008-09-08 10:02 51°11.715 2°29.086 11.3 332 16.1 101450 81
2008-09-08 10:03 51°11.675 2°28.934 14.6 325 16.1 101440 80
2008-09-08 10:04 51°11.638 2°28.788 12.7 327 16.1 101430 81
2008-09-08 10:05 51°11.599 2°28.638 10.3 331 16 101430 81
2008-09-08 10:06 51°11.559 2°28.486 10 326 15.9 101430 81
2008-09-08 10:07 51°11.523 2°28.328 13.2 327 16 101440 84
2008-09-08 10:08 51°11.495 2°28.172 14.7 327 16 101450 83
2008-09-08 10:09 51°11.482 2°28.013 13 319 16 101440 80
2008-09-08 10:10 51°11.517 2°27.867 13.2 22 16 101420 78
2008-09-08 10:11 51°11.559 2°27.719 12.8 29 16.1 101430 80
2008-09-08 10:12 51°11.599 2°27.576 11.9 26 16.1 101430 81
2008-09-08 10:13 51°11.642 2°27.434 15.3 23 16.1 101430 80
2008-09-08 10:14 51°11.7 2°27.314 14.9 24 16.1 101430 80
2008-09-08 10:15 51°11.785 2°27.26 14.7 253 16.1 101460 78
2008-09-08 10:16 51°11.873 2°27.203 14.4 256 16 101440 78
2008-09-08 10:17 51°11.962 2°27.143 11.6 253 16.1 101450 78
2008-09-08 10:18 51°12.059 2°27.111 12.1 255 16.1 101450 79
2008-09-08 10:19 51°12.156 2°27.102 11.2 258 16.1 101450 79
2008-09-08 10:20 51°12.252 2°27.093 7.3 263 16.1 101460 79
2008-09-08 10:21 51°12.349 2°27.106 7.8 270 16.1 101460 80
2008-09-08 10:22 51°12.441 2°27.146 6.7 268 16.1 101460 80
2008-09-08 10:23 51°12.532 2°27.198 6.9 267 16.1 101470 81
2008-09-08 10:24 51°12.619 2°27.26 7 24 16.1 101470 80
2008-09-08 10:25 51°12.698 2°27.345 7.3 24 16.1 101470 81
2008-09-08 10:26 51°12.774 2°27.44 8.5 24 16.1 101470 80
2008-09-08 10:27 51°12.853 2°27.534 7.5 20 16 101460 78
2008-09-08 10:28 51°12.954 2°27.653 6.2 270 16 101460 77
2008-09-08 10:29 51°13.092 2°27.822 6.3 269 16 101470 76
2008-09-08 10:30 51°13.249 2°28.012 5 266 16.1 101470 76
2008-09-08 10:31 51°13.41 2°28.2 6 259 16.1 101470 77
2008-09-08 10:32 51°13.569 2°28.386 4.9 266 16.1 101470 76
2008-09-08 10:33 51°13.731 2°28.567 4.6 28 16.1 101470 76
2008-09-08 10:34 51°13.887 2°28.762 4.5 27 16.2 101470 76
2008-09-08 10:35 51°14.034 2°28.969 6.1 27 16.2 101460 77
2008-09-08 10:36 51°14.183 2°29.179 5.6 25 16.2 101470 76
2008-09-08 10:37 51°14.332 2°29.388 5.2 23 16.2 101470 76
2008-09-08 10:38 51°14.481 2°29.601 5.1 267 16.1 101470 75
2008-09-08 10:39 51°14.631 2°29.812 2.6 263 16.1 101480 75
2008-09-08 10:40 51°14.777 2°30.02 3.8 22 16.2 101470 77
2008-09-08 10:41 51°14.93 2°30.231 3 266 16.2 101470 77
2008-09-08 10:42 51°15.08 2°30.439 4 268 16.3 101480 78
2008-09-08 10:43 51°15.23 2°30.647 5.9 25 16.2 101480 76
2008-09-08 10:44 51°15.365 2°30.877 5.2 27 16.2 101480 76
2008-09-08 10:45 51°15.486 2°31.12 4.5 23 16.2 101490 76
2008-09-08 10:46 51°15.6 2°31.378 5.7 23 16.2 101480 75
2008-09-08 10:47 51°15.695 2°31.661 5 27 16.2 101480 77
2008-09-08 10:48 51°15.763 2°31.956 4.2 24 16.3 101480 76
2008-09-08 10:49 51°15.78 2°32.26 8.4 20 16.3 101480 76
2008-09-08 10:50 51°15.68 2°32.5 10 14 16.3 101480 77
2008-09-08 10:51 51°15.555 2°32.641 13.4 13 16.2 101480 76
2008-09-08 10:52 51°15.43 2°32.714 12.9 13 16.2 101460 76
2008-09-08 10:53 51°15.324 2°32.829 12.1 11 16.2 101480 76
2008-09-08 10:54 51°15.221 2°32.9 10.4 34 16.2 101470 76
2008-09-08 10:55 51°15.197 2°33.003 9.3 41 16.2 101500 76
2008-09-08 10:56 51°15.163 2°33.199 6.7 29 16.2 101490 76
2008-09-08 10:57 51°15.113 2°33.486 7.2 29 16.2 101490 76
2008-09-08 10:58 51°15.057 2°33.784 7.8 32 16.3 101490 77
2008-09-08 10:59 51°14.981 2°34.072 8.1 11 16.3 101490 77
2008-09-08 11:00 51°14.857 2°34.315 10 12 16.3 101490 77
2008-09-08 11:01 51°14.729 2°34.556 9.2 11 16.3 101480 75
2008-09-08 11:02 51°14.609 2°34.805 10 20 16.3 101480 75
2008-09-08 11:03 51°14.566 2°35.103 4.8 40 16.3 101500 74
2008-09-08 11:04 51°14.516 2°35.404 7.5 27 16.4 101500 75
2008-09-08 11:05 51°14.449 2°35.695 8.5 25 16.4 101490 76
2008-09-08 11:06 51°14.337 2°35.942 9.3 14 16.4 101490 74
2008-09-08 11:07 51°14.193 2°36.145 10.8 10 16.4 101490 76
2008-09-08 11:08 51°14.053 2°36.355 9.9 10 16.4 101470 75
2008-09-08 11:09 51°13.913 2°36.566 10.2 12 16.5 101480 77
2008-09-08 11:10 51°13.774 2°36.779 8.9 15 16.4 101480 75
2008-09-08 11:11 51°13.635 2°36.995 10.5 11 16.4 101470 74
2008-09-08 11:12 51°13.499 2°37.212 8.7 15 16.4 101480 75
2008-09-08 11:13 51°13.365 2°37.422 11.5 13 16.5 101480 74
2008-09-08 11:14 51°13.25 2°37.542 11 19 16.5 101480 74
2008-09-08 11:15 51°13.164 2°37.614 11.1 28 16.5 101470 73
2008-09-08 11:16 51°13.103 2°37.685 11.1 26 16.5 101490 72
2008-09-08 11:17 51°13.071 2°37.711 11 12 16.5 101480 70
2008-09-08 11:18 51°13.056 2°37.718 9.2 12 16.5 101470 70
2008-09-08 11:19 51°13.047 2°37.723 10.9 11 16.6 101480 71
2008-09-08 11:20 51°13.042 2°37.731 9.6 16 16.5 101480 70
2008-09-08 11:21 51°13.046 2°37.736 9.5 25 16.6 101470 70
2008-09-08 11:22 51°13.04 2°37.745 8 16 16.6 101480 70
2008-09-08 11:23 51°13.003 2°37.742 10.5 351 16.7 101480 71
2008-09-08 11:24 51°12.973 2°37.686 10 328 16.6 101480 69
2008-09-08 11:25 51°12.967 2°37.663 10.5 316 16.7 101480 70
2008-09-08 11:26 51°12.966 2°37.665 11.1 243 16.7 101500 71
2008-09-08 11:27 51°12.965 2°37.673 11.1 256 16.7 101490 70
2008-09-08 11:28 51°12.971 2°37.676 11.1 259 16.8 101490 71
2008-09-08 11:29 51°12.98 2°37.675 8.7 260 16.8 101500 72
2008-09-08 11:30 51°12.985 2°37.676 9.6 258 16.8 101500 72
2008-09-08 11:31 51°12.987 2°37.68 10.5 259 16.9 101500 73
2008-09-08 11:32 51°12.988 2°37.684 9.8 257 16.9 101490 73
2008-09-08 11:33 51°12.993 2°37.686 9.2 258 16.9 101500 71
2008-09-08 11:34 51°12.995 2°37.689 10.7 255 16.9 101500 71
2008-09-08 11:35 51°12.996 2°37.694 8.6 257 16.9 101500 71
2008-09-08 11:36 51°12.999 2°37.696 9.5 258 17 101490 72
2008-09-08 11:37 51°13.002 2°37.7 8.7 259 16.9 101500 70
2008-09-08 11:38 51°13.002 2°37.704 9.6 261 17 101500 72
2008-09-08 11:39 51°13.001 2°37.71 6.5 268 16.9 101510 70
2008-09-08 11:40 51°13.002 2°37.715 8 262 16.9 101510 69
2008-09-08 11:41 51°13.004 2°37.721 5.6 264 16.9 101510 69
2008-09-08 11:42 51°13.004 2°37.727 5.1 264 16.9 101510 69
2008-09-08 11:43 51°13.003 2°37.731 7.4 262 16.9 101510 70
2008-09-08 11:44 51°13.001 2°37.734 5.2 263 17 101510 71
2008-09-08 11:45 51°13.018 2°37.74 7.4 24 16.9 101510 69
2008-09-08 11:46 51°13.068 2°37.873 2.3 22 16.8 101510 68
2008-09-08 11:47 51°13.124 2°38.087 1.5 22 17.1 101510 68
2008-09-08 11:48 51°13.183 2°38.328 1.5 23 17.3 101510 67
2008-09-08 11:49 51°13.247 2°38.59 2.2 29 17.4 101510 67
2008-09-08 11:50 51°13.315 2°38.856 1.5 27 17.4 101520 66
2008-09-08 11:51 51°13.383 2°39.128 1.7 31 17.4 101520 66
2008-09-08 11:52 51°13.448 2°39.408 2.2 24 17.4 101520 66
2008-09-08 11:53 51°13.511 2°39.695 1.8 21 17.5 101520 66
2008-09-08 11:54 51°13.573 2°39.978 2 22 17.4 101520 65
2008-09-08 11:55 51°13.638 2°40.264 2 30 17.4 101520 64
2008-09-08 11:56 51°13.7 2°40.55 2 22 17.3 101520 65
2008-09-08 11:57 51°13.764 2°40.836 2.2 23 17.3 101510 66
2008-09-08 11:58 51°13.825 2°41.124 1.5 29 17.4 101520 67
2008-09-08 11:59 51°13.889 2°41.41 2.2 21 17.4 101530 67
2008-09-08 12:00 51°13.952 2°41.694 1.5 21 17.2 101530 65
2008-09-08 12:01 51°14.012 2°41.979 2.4 21 17.2 101520 67
2008-09-08 12:02 51°14.071 2°42.267 1.5 30 17.2 101520 66
2008-09-08 12:03 51°14.137 2°42.551 1.1 26 17.2 101520 67
2008-09-08 12:04 51°14.202 2°42.835 1.7 23 17.3 101520 67
2008-09-08 12:05 51°14.263 2°43.122 1.9 30 17.2 101520 66
2008-09-08 12:06 51°14.325 2°43.407 1.2 26 17.3 101520 67
2008-09-08 12:07 51°14.385 2°43.694 2.4 21 17.4 101520 67
2008-09-08 12:08 51°14.449 2°43.984 1.9 23 17.4 101520 66
2008-09-08 12:09 51°14.515 2°44.267 2.2 30 17.3 101520 65
2008-09-08 12:10 51°14.574 2°44.555 3 28 17.3 101510 66
2008-09-08 12:11 51°14.618 2°44.851 2.5 30 17.3 101520 65
2008-09-08 12:12 51°14.644 2°45.151 3.1 22 17.4 101520 63
2008-09-08 12:13 51°14.673 2°45.449 2.6 28 17.4 101520 66
2008-09-08 12:14 51°14.703 2°45.746 2.1 21 17.4 101520 66
2008-09-08 12:15 51°14.739 2°46.04 1.7 31 17.3 101520 66
2008-09-08 12:16 51°14.769 2°46.338 1.8 45 17.2 101520 66
2008-09-08 12:17 51°14.789 2°46.641 3.5 39 17.2 101520 68
2008-09-08 12:18 51°14.79 2°46.946 2.8 41 17.2 101520 68
2008-09-08 12:19 51°14.79 2°47.253 2.1 32 17.1 101520 67
2008-09-08 12:20 51°14.787 2°47.558 2.2 27 17 101520 67
2008-09-08 12:21 51°14.781 2°47.859 1.6 45 17.1 101520 68
2008-09-08 12:22 51°14.777 2°48.163 2.9 28 17 101520 67
2008-09-08 12:23 51°14.773 2°48.466 1.7 28 16.9 101520 67
2008-09-08 12:24 51°14.772 2°48.774 2.4 37 17 101520 68
2008-09-08 12:25 51°14.769 2°49.081 2 28 17.1 101530 68
2008-09-08 12:26 51°14.769 2°49.386 2.2 27 17.1 101530 68
2008-09-08 12:27 51°14.769 2°49.689 2.8 38 17.1 101530 68
2008-09-08 12:28 51°14.763 2°49.992 2 27 17.1 101530 69
2008-09-08 12:29 51°14.758 2°50.298 1.1 42 17.1 101530 69
2008-09-08 12:30 51°14.756 2°50.602 1.1 39 17.2 101530 70
2008-09-08 12:31 51°14.761 2°50.907 1.7 24 17.3 101530 70
2008-09-08 12:32 51°14.757 2°51.208 1.9 37 17.3 101530 68
2008-09-08 12:33 51°14.757 2°51.513 0.8 41 17.3 101540 69
2008-09-08 12:34 51°14.756 2°51.817 3 28 17.4 101530 69
2008-09-08 12:35 51°14.732 2°52.119 3.2 37 17.3 101530 68
2008-09-08 12:36 51°14.714 2°52.421 1.6 29 17.3 101540 68
2008-09-08 12:37 51°14.699 2°52.724 2.4 22 17.3 101540 69
2008-09-08 12:38 51°14.677 2°53.019 2.6 30 17.2 101540 66
2008-09-08 12:39 51°14.66 2°53.319 2.9 44 17.1 101540 66
2008-09-08 12:40 51°14.638 2°53.624 1.8 42 17 101540 64
2008-09-08 12:41 51°14.601 2°53.928 3 30 17.1 101540 67
2008-09-08 12:42 51°14.552 2°54.231 3.6 43 17.1 101540 66
2008-09-08 12:43 51°14.5 2°54.527 3.9 33 17.1 101540 67
2008-09-08 12:44 51°14.425 2°54.813 4.2 23 17.1 101540 67
2008-09-08 12:45 51°14.338 2°55.096 5.2 15 17.1 101540 70
2008-09-08 12:46 51°14.202 2°55.339 6.5 8 17.1 101540 69
2008-09-08 12:47 51°14.079 2°55.451 3 354 17 101540 66
2008-09-08 12:48 51°13.966 2°55.533 5.6 358 17.1 101540 65
2008-09-08 12:49 51°13.862 2°55.607 3.4 4 17.2 101530 64
2008-09-08 12:50 51°13.775 2°55.684 3.5 20 17.3 101540 65
2008-09-08 12:51 51°13.707 2°55.788 0.4 38 17.5 101540 64
2008-09-08 12:52 51°13.661 2°55.893 1.8 36 17.7 101540 65
2008-09-08 12:53 51°13.637 2°55.984 2.6 22 17.9 101540 62
2008-09-08 12:54 51°13.628 2°56.036 3.8 32 17.9 101550 61
2008-09-08 12:55 51°13.622 2°56.046 7.5 28 18 101540 61
2008-09-08 12:56 51°13.622 2°56.049 5 27 17.9 101540 60
2008-09-08 12:57 51°13.623 2°56.049 5.3 23 17.7 101550 60
2008-09-08 12:58 51°13.623 2°56.048 5.4 37 17.5 101550 60